sensor_id;sensor_type;location;lat;lon;timestamp;P1;durP1;ratioP1;P2;durP2;ratioP2
48813;SDS011;34634;44.108;3.074;2022-09-03T00:01:21;13.25;;;6.97;;
48813;SDS011;34634;44.108;3.074;2022-09-03T00:03:54;7.60;;;6.38;;
48813;SDS011;34634;44.108;3.074;2022-09-03T00:06:24;13.82;;;6.30;;
48813;SDS011;34634;44.108;3.074;2022-09-03T00:14:36;10.07;;;6.05;;
48813;SDS011;34634;44.108;3.074;2022-09-03T00:17:06;12.38;;;6.20;;
48813;SDS011;34634;44.108;3.074;2022-09-03T00:19:37;9.98;;;5.70;;
48813;SDS011;34634;44.108;3.074;2022-09-03T00:22:09;12.35;;;6.40;;
48813;SDS011;34634;44.108;3.074;2022-09-03T00:24:38;11.48;;;6.38;;
48813;SDS011;34634;44.108;3.074;2022-09-03T00:27:06;16.00;;;7.65;;
48813;SDS011;34634;44.108;3.074;2022-09-03T00:29:48;11.50;;;7.63;;
48813;SDS011;34634;44.108;3.074;2022-09-03T00:32:17;11.88;;;7.43;;
48813;SDS011;34634;44.108;3.074;2022-09-03T00:34:46;15.27;;;7.10;;
48813;SDS011;34634;44.108;3.074;2022-09-03T00:37:15;12.45;;;6.78;;
48813;SDS011;34634;44.108;3.074;2022-09-03T00:39:41;12.75;;;7.88;;
48813;SDS011;34634;44.108;3.074;2022-09-03T00:45:02;14.40;;;7.72;;
48813;SDS011;34634;44.108;3.074;2022-09-03T00:52:42;11.48;;;7.07;;
48813;SDS011;34634;44.108;3.074;2022-09-03T00:55:31;10.18;;;7.07;;
48813;SDS011;34634;44.108;3.074;2022-09-03T01:00:27;15.85;;;7.30;;
48813;SDS011;34634;44.108;3.074;2022-09-03T01:26:11;12.35;;;6.85;;
48813;SDS011;34634;44.108;3.074;2022-09-03T01:33:43;16.00;;;7.05;;
48813;SDS011;34634;44.108;3.074;2022-09-03T01:38:46;10.30;;;8.15;;
48813;SDS011;34634;44.108;3.074;2022-09-03T01:46:58;9.55;;;6.00;;
48813;SDS011;34634;44.108;3.074;2022-09-03T01:49:40;8.90;;;6.45;;
48813;SDS011;34634;44.108;3.074;2022-09-03T01:52:18;10.55;;;7.38;;
48813;SDS011;34634;44.108;3.074;2022-09-03T02:02:32;12.13;;;6.72;;
48813;SDS011;34634;44.108;3.074;2022-09-03T02:10:17;10.35;;;7.05;;
48813;SDS011;34634;44.108;3.074;2022-09-03T02:12:45;7.30;;;6.05;;
48813;SDS011;34634;44.108;3.074;2022-09-03T02:15:15;10.98;;;6.40;;
48813;SDS011;34634;44.108;3.074;2022-09-03T02:17:42;9.45;;;6.47;;
48813;SDS011;34634;44.108;3.074;2022-09-03T02:20:11;10.27;;;6.40;;
48813;SDS011;34634;44.108;3.074;2022-09-03T02:22:40;8.20;;;6.10;;
48813;SDS011;34634;44.108;3.074;2022-09-03T02:25:07;7.82;;;6.38;;
48813;SDS011;34634;44.108;3.074;2022-09-03T02:27:36;11.77;;;5.80;;
48813;SDS011;34634;44.108;3.074;2022-09-03T02:30:02;14.43;;;6.57;;
48813;SDS011;34634;44.108;3.074;2022-09-03T02:32:29;7.07;;;5.78;;
48813;SDS011;34634;44.108;3.074;2022-09-03T02:34:55;10.40;;;5.90;;
48813;SDS011;34634;44.108;3.074;2022-09-03T02:37:22;10.60;;;6.07;;
48813;SDS011;34634;44.108;3.074;2022-09-03T02:39:48;7.35;;;6.15;;
48813;SDS011;34634;44.108;3.074;2022-09-03T02:42:16;10.90;;;6.93;;
48813;SDS011;34634;44.108;3.074;2022-09-03T02:44:44;10.23;;;6.43;;
48813;SDS011;34634;44.108;3.074;2022-09-03T02:47:11;11.05;;;6.88;;
48813;SDS011;34634;44.108;3.074;2022-09-03T02:49:39;10.02;;;6.85;;
48813;SDS011;34634;44.108;3.074;2022-09-03T02:52:07;9.93;;;7.07;;
48813;SDS011;34634;44.108;3.074;2022-09-03T02:54:37;9.63;;;6.63;;
48813;SDS011;34634;44.108;3.074;2022-09-03T02:57:11;9.38;;;6.47;;
48813;SDS011;34634;44.108;3.074;2022-09-03T02:59:38;14.98;;;7.78;;
48813;SDS011;34634;44.108;3.074;2022-09-03T03:02:06;13.35;;;7.85;;
48813;SDS011;34634;44.108;3.074;2022-09-03T03:04:32;7.88;;;7.05;;
48813;SDS011;34634;44.108;3.074;2022-09-03T03:06:59;13.13;;;7.22;;
48813;SDS011;34634;44.108;3.074;2022-09-03T03:09:25;11.90;;;7.03;;
48813;SDS011;34634;44.108;3.074;2022-09-03T03:11:52;11.35;;;7.15;;
48813;SDS011;34634;44.108;3.074;2022-09-03T03:14:19;10.57;;;6.82;;
48813;SDS011;34634;44.108;3.074;2022-09-03T03:16:47;11.32;;;7.07;;
48813;SDS011;34634;44.108;3.074;2022-09-03T03:19:13;13.05;;;6.70;;
48813;SDS011;34634;44.108;3.074;2022-09-03T03:21:39;8.35;;;6.43;;
48813;SDS011;34634;44.108;3.074;2022-09-03T03:24:06;12.27;;;6.35;;
48813;SDS011;34634;44.108;3.074;2022-09-03T03:26:33;9.27;;;6.88;;
48813;SDS011;34634;44.108;3.074;2022-09-03T03:29:00;9.20;;;7.03;;
48813;SDS011;34634;44.108;3.074;2022-09-03T03:31:29;15.80;;;7.28;;
48813;SDS011;34634;44.108;3.074;2022-09-03T03:33:56;10.93;;;6.28;;
48813;SDS011;34634;44.108;3.074;2022-09-03T03:36:23;11.95;;;6.90;;
48813;SDS011;34634;44.108;3.074;2022-09-03T03:38:53;13.15;;;6.95;;
48813;SDS011;34634;44.108;3.074;2022-09-03T03:41:21;17.05;;;8.13;;
48813;SDS011;34634;44.108;3.074;2022-09-03T03:43:54;11.63;;;7.38;;
48813;SDS011;34634;44.108;3.074;2022-09-03T03:46:22;14.43;;;7.25;;
48813;SDS011;34634;44.108;3.074;2022-09-03T03:48:49;10.88;;;6.47;;
48813;SDS011;34634;44.108;3.074;2022-09-03T03:51:16;11.32;;;7.10;;
48813;SDS011;34634;44.108;3.074;2022-09-03T03:53:43;9.45;;;6.85;;
48813;SDS011;34634;44.108;3.074;2022-09-03T03:56:10;12.60;;;5.85;;
48813;SDS011;34634;44.108;3.074;2022-09-03T03:58:37;10.32;;;5.75;;
48813;SDS011;34634;44.108;3.074;2022-09-03T04:01:08;9.65;;;6.30;;
48813;SDS011;34634;44.108;3.074;2022-09-03T04:03:35;11.80;;;6.57;;
48813;SDS011;34634;44.108;3.074;2022-09-03T04:06:02;13.77;;;6.80;;
48813;SDS011;34634;44.108;3.074;2022-09-03T04:08:29;16.27;;;6.53;;
48813;SDS011;34634;44.108;3.074;2022-09-03T04:10:59;11.80;;;6.95;;
48813;SDS011;34634;44.108;3.074;2022-09-03T04:13:29;10.35;;;6.63;;
48813;SDS011;34634;44.108;3.074;2022-09-03T04:16:38;14.30;;;7.30;;
48813;SDS011;34634;44.108;3.074;2022-09-03T04:18:46;9.30;;;6.75;;
48813;SDS011;34634;44.108;3.074;2022-09-03T04:21:15;9.43;;;7.00;;
48813;SDS011;34634;44.108;3.074;2022-09-03T04:23:42;12.30;;;7.00;;
48813;SDS011;34634;44.108;3.074;2022-09-03T04:26:09;15.70;;;7.38;;
48813;SDS011;34634;44.108;3.074;2022-09-03T04:28:36;9.55;;;7.03;;
48813;SDS011;34634;44.108;3.074;2022-09-03T04:31:07;11.80;;;6.55;;
48813;SDS011;34634;44.108;3.074;2022-09-03T04:33:34;9.85;;;6.40;;
48813;SDS011;34634;44.108;3.074;2022-09-03T04:38:30;10.63;;;6.55;;
48813;SDS011;34634;44.108;3.074;2022-09-03T04:40:57;8.15;;;6.30;;
48813;SDS011;34634;44.108;3.074;2022-09-03T04:43:24;9.70;;;6.32;;
48813;SDS011;34634;44.108;3.074;2022-09-03T04:45:51;10.55;;;6.57;;
48813;SDS011;34634;44.108;3.074;2022-09-03T04:48:20;8.60;;;6.63;;
48813;SDS011;34634;44.108;3.074;2022-09-03T04:50:47;8.85;;;6.50;;
48813;SDS011;34634;44.108;3.074;2022-09-03T04:53:14;8.18;;;6.38;;
48813;SDS011;34634;44.108;3.074;2022-09-03T04:55:41;7.60;;;6.05;;
48813;SDS011;34634;44.108;3.074;2022-09-03T04:58:07;10.38;;;6.00;;
48813;SDS011;34634;44.108;3.074;2022-09-03T05:00:37;9.60;;;6.10;;
48813;SDS011;34634;44.108;3.074;2022-09-03T05:03:03;9.63;;;6.00;;
48813;SDS011;34634;44.108;3.074;2022-09-03T05:05:30;9.63;;;6.78;;
48813;SDS011;34634;44.108;3.074;2022-09-03T05:07:58;13.07;;;6.65;;
48813;SDS011;34634;44.108;3.074;2022-09-03T05:10:26;8.52;;;6.85;;
48813;SDS011;34634;44.108;3.074;2022-09-03T05:13:04;7.55;;;6.40;;
48813;SDS011;34634;44.108;3.074;2022-09-03T05:15:32;8.40;;;7.05;;
48813;SDS011;34634;44.108;3.074;2022-09-03T05:17:58;10.73;;;6.90;;
48813;SDS011;34634;44.108;3.074;2022-09-03T05:20:26;12.13;;;8.18;;
48813;SDS011;34634;44.108;3.074;2022-09-03T05:22:55;8.70;;;7.22;;
48813;SDS011;34634;44.108;3.074;2022-09-03T05:25:22;15.18;;;7.88;;
48813;SDS011;34634;44.108;3.074;2022-09-03T05:27:48;8.73;;;6.88;;
48813;SDS011;34634;44.108;3.074;2022-09-03T05:30:15;13.60;;;8.23;;
48813;SDS011;34634;44.108;3.074;2022-09-03T05:32:42;10.07;;;8.38;;
48813;SDS011;34634;44.108;3.074;2022-09-03T05:35:08;12.50;;;7.57;;
48813;SDS011;34634;44.108;3.074;2022-09-03T05:37:35;10.15;;;6.82;;
48813;SDS011;34634;44.108;3.074;2022-09-03T05:40:02;10.25;;;6.65;;
48813;SDS011;34634;44.108;3.074;2022-09-03T05:42:29;10.32;;;5.97;;
48813;SDS011;34634;44.108;3.074;2022-09-03T05:44:56;9.80;;;6.60;;
48813;SDS011;34634;44.108;3.074;2022-09-03T05:47:22;13.10;;;6.30;;
48813;SDS011;34634;44.108;3.074;2022-09-03T05:49:49;10.88;;;6.28;;
48813;SDS011;34634;44.108;3.074;2022-09-03T05:52:15;9.48;;;6.75;;
48813;SDS011;34634;44.108;3.074;2022-09-03T05:54:43;6.57;;;5.88;;
48813;SDS011;34634;44.108;3.074;2022-09-03T05:57:11;10.02;;;5.90;;
48813;SDS011;34634;44.108;3.074;2022-09-03T05:59:38;12.10;;;6.72;;
48813;SDS011;34634;44.108;3.074;2022-09-03T06:02:04;11.75;;;7.20;;
48813;SDS011;34634;44.108;3.074;2022-09-03T06:04:31;11.48;;;6.68;;
48813;SDS011;34634;44.108;3.074;2022-09-03T06:06:57;10.02;;;6.63;;
48813;SDS011;34634;44.108;3.074;2022-09-03T06:09:24;11.63;;;6.97;;
48813;SDS011;34634;44.108;3.074;2022-09-03T06:11:50;11.57;;;6.80;;
48813;SDS011;34634;44.108;3.074;2022-09-03T06:14:18;7.50;;;5.97;;
48813;SDS011;34634;44.108;3.074;2022-09-03T06:16:45;7.75;;;5.13;;
48813;SDS011;34634;44.108;3.074;2022-09-03T06:19:16;8.52;;;5.20;;
48813;SDS011;34634;44.108;3.074;2022-09-03T06:21:44;6.40;;;5.10;;
48813;SDS011;34634;44.108;3.074;2022-09-03T06:24:11;11.48;;;5.60;;
48813;SDS011;34634;44.108;3.074;2022-09-03T06:26:38;6.22;;;5.35;;
48813;SDS011;34634;44.108;3.074;2022-09-03T06:29:05;5.43;;;4.88;;
48813;SDS011;34634;44.108;3.074;2022-09-03T06:31:32;9.05;;;5.45;;
48813;SDS011;34634;44.108;3.074;2022-09-03T06:33:59;8.07;;;6.00;;
48813;SDS011;34634;44.108;3.074;2022-09-03T06:36:26;10.25;;;6.60;;
48813;SDS011;34634;44.108;3.074;2022-09-03T06:38:53;8.13;;;6.05;;
48813;SDS011;34634;44.108;3.074;2022-09-03T06:41:21;13.05;;;6.25;;
48813;SDS011;34634;44.108;3.074;2022-09-03T06:43:50;7.88;;;6.15;;
48813;SDS011;34634;44.108;3.074;2022-09-03T06:46:18;13.20;;;5.20;;
48813;SDS011;34634;44.108;3.074;2022-09-03T06:48:44;7.47;;;5.10;;
48813;SDS011;34634;44.108;3.074;2022-09-03T06:51:15;6.25;;;4.57;;
48813;SDS011;34634;44.108;3.074;2022-09-03T06:53:43;5.63;;;4.40;;
48813;SDS011;34634;44.108;3.074;2022-09-03T06:56:14;8.52;;;5.30;;
48813;SDS011;34634;44.108;3.074;2022-09-03T06:58:42;6.70;;;4.88;;
48813;SDS011;34634;44.108;3.074;2022-09-03T07:01:12;7.82;;;5.13;;
48813;SDS011;34634;44.108;3.074;2022-09-03T07:03:39;8.07;;;4.90;;
48813;SDS011;34634;44.108;3.074;2022-09-03T07:06:08;7.70;;;4.88;;
48813;SDS011;34634;44.108;3.074;2022-09-03T07:08:34;7.28;;;4.60;;
48813;SDS011;34634;44.108;3.074;2022-09-03T07:11:05;7.70;;;4.43;;
48813;SDS011;34634;44.108;3.074;2022-09-03T07:13:34;7.30;;;4.40;;
48813;SDS011;34634;44.108;3.074;2022-09-03T07:16:05;8.57;;;4.40;;
48813;SDS011;34634;44.108;3.074;2022-09-03T07:18:32;5.90;;;4.20;;
48813;SDS011;34634;44.108;3.074;2022-09-03T07:20:58;12.27;;;3.90;;
48813;SDS011;34634;44.108;3.074;2022-09-03T07:23:25;5.85;;;4.10;;
48813;SDS011;34634;44.108;3.074;2022-09-03T07:25:55;4.18;;;3.78;;
48813;SDS011;34634;44.108;3.074;2022-09-03T07:28:23;6.32;;;3.83;;
48813;SDS011;34634;44.108;3.074;2022-09-03T07:30:52;6.78;;;3.75;;
48813;SDS011;34634;44.108;3.074;2022-09-03T07:33:19;3.85;;;2.78;;
48813;SDS011;34634;44.108;3.074;2022-09-03T07:35:46;7.13;;;3.15;;
48813;SDS011;34634;44.108;3.074;2022-09-03T07:38:16;3.08;;;2.55;;
48813;SDS011;34634;44.108;3.074;2022-09-03T07:43:11;3.72;;;2.78;;
48813;SDS011;34634;44.108;3.074;2022-09-03T07:45:38;5.85;;;2.70;;
48813;SDS011;34634;44.108;3.074;2022-09-03T07:48:05;4.30;;;2.58;;
48813;SDS011;34634;44.108;3.074;2022-09-03T07:50:31;7.28;;;2.67;;
48813;SDS011;34634;44.108;3.074;2022-09-03T07:53:03;7.25;;;2.80;;
48813;SDS011;34634;44.108;3.074;2022-09-03T07:55:29;5.00;;;2.10;;
48813;SDS011;34634;44.108;3.074;2022-09-03T07:57:56;3.75;;;2.40;;
48813;SDS011;34634;44.108;3.074;2022-09-03T08:00:24;2.33;;;2.10;;
48813;SDS011;34634;44.108;3.074;2022-09-03T08:02:51;4.15;;;2.05;;
48813;SDS011;34634;44.108;3.074;2022-09-03T08:05:18;2.30;;;2.08;;
48813;SDS011;34634;44.108;3.074;2022-09-03T08:07:46;4.38;;;2.42;;
48813;SDS011;34634;44.108;3.074;2022-09-03T08:10:13;3.60;;;2.30;;
48813;SDS011;34634;44.108;3.074;2022-09-03T08:12:40;3.13;;;2.35;;
48813;SDS011;34634;44.108;3.074;2022-09-03T08:15:07;3.55;;;2.38;;
48813;SDS011;34634;44.108;3.074;2022-09-03T08:17:33;3.15;;;2.33;;
48813;SDS011;34634;44.108;3.074;2022-09-03T08:20:00;2.75;;;2.30;;
48813;SDS011;34634;44.108;3.074;2022-09-03T08:22:27;3.60;;;2.10;;
48813;SDS011;34634;44.108;3.074;2022-09-03T08:24:53;3.15;;;2.50;;
48813;SDS011;34634;44.108;3.074;2022-09-03T08:27:20;2.95;;;2.03;;
48813;SDS011;34634;44.108;3.074;2022-09-03T08:29:49;5.22;;;2.40;;
48813;SDS011;34634;44.108;3.074;2022-09-03T08:32:16;3.33;;;2.00;;
48813;SDS011;34634;44.108;3.074;2022-09-03T08:34:42;1.80;;;1.70;;
48813;SDS011;34634;44.108;3.074;2022-09-03T08:37:08;5.28;;;2.17;;
48813;SDS011;34634;44.108;3.074;2022-09-03T08:39:36;2.85;;;1.52;;
48813;SDS011;34634;44.108;3.074;2022-09-03T08:44:44;1.63;;;1.42;;
48813;SDS011;34634;44.108;3.074;2022-09-03T08:52:33;1.77;;;1.67;;
48813;SDS011;34634;44.108;3.074;2022-09-03T08:55:16;1.73;;;1.60;;
48813;SDS011;34634;44.108;3.074;2022-09-03T08:57:45;5.15;;;1.70;;
48813;SDS011;34634;44.108;3.074;2022-09-03T09:00:12;1.73;;;1.38;;
48813;SDS011;34634;44.108;3.074;2022-09-03T09:02:43;1.77;;;1.50;;
48813;SDS011;34634;44.108;3.074;2022-09-03T09:05:12;2.67;;;1.90;;
48813;SDS011;34634;44.108;3.074;2022-09-03T09:07:46;2.80;;;1.70;;
48813;SDS011;34634;44.108;3.074;2022-09-03T09:10:36;2.95;;;2.00;;
48813;SDS011;34634;44.108;3.074;2022-09-03T09:13:11;2.00;;;1.80;;
48813;SDS011;34634;44.108;3.074;2022-09-03T09:23:29;3.28;;;1.92;;
48813;SDS011;34634;44.108;3.074;2022-09-03T09:25:58;4.20;;;2.00;;
48813;SDS011;34634;44.108;3.074;2022-09-03T09:28:29;2.53;;;2.33;;
48813;SDS011;34634;44.108;3.074;2022-09-03T09:30:58;3.13;;;2.47;;
48813;SDS011;34634;44.108;3.074;2022-09-03T09:33:28;2.70;;;1.90;;
48813;SDS011;34634;44.108;3.074;2022-09-03T09:36:06;2.15;;;1.50;;
48813;SDS011;34634;44.108;3.074;2022-09-03T09:38:34;2.38;;;1.75;;
48813;SDS011;34634;44.108;3.074;2022-09-03T09:41:10;3.70;;;1.60;;
48813;SDS011;34634;44.108;3.074;2022-09-03T09:43:37;2.75;;;1.50;;
48813;SDS011;34634;44.108;3.074;2022-09-03T09:46:20;3.38;;;1.60;;
48813;SDS011;34634;44.108;3.074;2022-09-03T09:48:48;1.30;;;1.20;;
48813;SDS011;34634;44.108;3.074;2022-09-03T09:51:21;2.27;;;1.50;;
48813;SDS011;34634;44.108;3.074;2022-09-03T09:53:47;1.40;;;1.30;;
48813;SDS011;34634;44.108;3.074;2022-09-03T09:56:24;1.80;;;1.65;;
48813;SDS011;34634;44.108;3.074;2022-09-03T10:01:29;1.42;;;1.33;;
48813;SDS011;34634;44.108;3.074;2022-09-03T10:03:57;1.42;;;1.30;;
48813;SDS011;34634;44.108;3.074;2022-09-03T10:06:24;1.50;;;1.40;;
48813;SDS011;34634;44.108;3.074;2022-09-03T10:09:11;2.47;;;1.38;;
48813;SDS011;34634;44.108;3.074;2022-09-03T10:11:40;5.05;;;1.40;;
48813;SDS011;34634;44.108;3.074;2022-09-03T10:14:12;2.90;;;1.52;;
48813;SDS011;34634;44.108;3.074;2022-09-03T10:16:42;4.55;;;1.10;;
48813;SDS011;34634;44.108;3.074;2022-09-03T10:19:17;1.92;;;1.13;;
48813;SDS011;34634;44.108;3.074;2022-09-03T10:21:54;1.88;;;1.25;;
48813;SDS011;34634;44.108;3.074;2022-09-03T10:26:50;1.30;;;1.20;;
48813;SDS011;34634;44.108;3.074;2022-09-03T10:29:17;1.50;;;1.40;;
48813;SDS011;34634;44.108;3.074;2022-09-03T10:31:50;1.67;;;1.30;;
48813;SDS011;34634;44.108;3.074;2022-09-03T10:37:05;1.27;;;1.17;;
48813;SDS011;34634;44.108;3.074;2022-09-03T10:49:40;1.77;;;1.10;;
48813;SDS011;34634;44.108;3.074;2022-09-03T10:57:13;1.85;;;1.02;;
48813;SDS011;34634;44.108;3.074;2022-09-03T11:02:28;2.08;;;1.50;;
48813;SDS011;34634;44.108;3.074;2022-09-03T11:05:06;2.67;;;1.27;;
48813;SDS011;34634;44.108;3.074;2022-09-03T11:07:34;3.72;;;1.30;;
48813;SDS011;34634;44.108;3.074;2022-09-03T11:12:35;1.65;;;1.20;;
48813;SDS011;34634;44.108;3.074;2022-09-03T11:17:46;2.25;;;1.10;;
48813;SDS011;34634;44.108;3.074;2022-09-03T11:22:40;3.08;;;1.30;;
48813;SDS011;34634;44.108;3.074;2022-09-03T11:25:08;1.40;;;1.30;;
48813;SDS011;34634;44.108;3.074;2022-09-03T11:30:07;2.23;;;1.30;;
48813;SDS011;34634;44.108;3.074;2022-09-03T11:32:43;2.83;;;1.17;;
48813;SDS011;34634;44.108;3.074;2022-09-03T11:35:15;1.30;;;1.20;;
48813;SDS011;34634;44.108;3.074;2022-09-03T11:37:57;1.50;;;1.15;;
48813;SDS011;34634;44.108;3.074;2022-09-03T11:53:52;1.60;;;1.20;;
48813;SDS011;34634;44.108;3.074;2022-09-03T11:56:18;1.95;;;1.15;;
48813;SDS011;34634;44.108;3.074;2022-09-03T11:58:45;1.00;;;0.90;;
48813;SDS011;34634;44.108;3.074;2022-09-03T12:01:12;5.05;;;1.20;;
48813;SDS011;34634;44.108;3.074;2022-09-03T12:03:43;1.20;;;1.10;;
48813;SDS011;34634;44.108;3.074;2022-09-03T12:16:31;3.45;;;1.10;;
48813;SDS011;34634;44.108;3.074;2022-09-03T12:19:06;3.95;;;1.20;;
48813;SDS011;34634;44.108;3.074;2022-09-03T12:21:38;1.00;;;1.00;;
48813;SDS011;34634;44.108;3.074;2022-09-03T12:24:05;1.52;;;1.10;;
48813;SDS011;34634;44.108;3.074;2022-09-03T12:26:37;3.00;;;1.00;;
48813;SDS011;34634;44.108;3.074;2022-09-03T12:29:04;1.00;;;1.00;;
48813;SDS011;34634;44.108;3.074;2022-09-03T12:31:31;1.63;;;1.27;;
48813;SDS011;34634;44.108;3.074;2022-09-03T12:36:34;1.50;;;1.40;;
48813;SDS011;34634;44.108;3.074;2022-09-03T12:39:34;1.23;;;1.13;;
48813;SDS011;34634;44.108;3.074;2022-09-03T12:44:31;1.30;;;1.20;;
48813;SDS011;34634;44.108;3.074;2022-09-03T12:49:32;1.67;;;1.33;;
48813;SDS011;34634;44.108;3.074;2022-09-03T12:52:07;2.42;;;1.20;;
48813;SDS011;34634;44.108;3.074;2022-09-03T12:54:36;1.42;;;1.33;;
48813;SDS011;34634;44.108;3.074;2022-09-03T12:57:05;1.40;;;1.20;;
48813;SDS011;34634;44.108;3.074;2022-09-03T12:59:34;1.85;;;1.33;;
48813;SDS011;34634;44.108;3.074;2022-09-03T13:02:04;2.58;;;1.10;;
48813;SDS011;34634;44.108;3.074;2022-09-03T13:04:32;1.50;;;1.15;;
48813;SDS011;34634;44.108;3.074;2022-09-03T13:09:28;1.30;;;1.20;;
48813;SDS011;34634;44.108;3.074;2022-09-03T13:11:56;1.52;;;1.42;;
48813;SDS011;34634;44.108;3.074;2022-09-03T13:14:40;4.22;;;1.13;;
48813;SDS011;34634;44.108;3.074;2022-09-03T13:17:09;1.83;;;1.30;;
48813;SDS011;34634;44.108;3.074;2022-09-03T13:30:21;2.20;;;1.10;;
48813;SDS011;34634;44.108;3.074;2022-09-03T13:33:08;2.15;;;1.30;;
48813;SDS011;34634;44.108;3.074;2022-09-03T13:40:32;2.03;;;1.45;;
48813;SDS011;34634;44.108;3.074;2022-09-03T13:43:02;1.50;;;1.40;;
48813;SDS011;34634;44.108;3.074;2022-09-03T13:46:31;3.55;;;1.50;;
48813;SDS011;34634;44.108;3.074;2022-09-03T13:48:28;1.42;;;1.08;;
48813;SDS011;34634;44.108;3.074;2022-09-03T13:51:16;2.88;;;1.20;;
48813;SDS011;34634;44.108;3.074;2022-09-03T13:59:14;1.90;;;1.27;;
48813;SDS011;34634;44.108;3.074;2022-09-03T14:01:45;2.53;;;1.70;;
48813;SDS011;34634;44.108;3.074;2022-09-03T14:04:21;1.25;;;1.15;;
48813;SDS011;34634;44.108;3.074;2022-09-03T14:09:47;2.03;;;1.48;;
48813;SDS011;34634;44.108;3.074;2022-09-03T14:14:50;1.80;;;1.23;;
48813;SDS011;34634;44.108;3.074;2022-09-03T14:17:22;2.78;;;1.40;;
48813;SDS011;34634;44.108;3.074;2022-09-03T14:19:57;4.38;;;1.30;;
48813;SDS011;34634;44.108;3.074;2022-09-03T14:22:25;2.13;;;1.35;;
48813;SDS011;34634;44.108;3.074;2022-09-03T14:24:55;4.00;;;1.40;;
48813;SDS011;34634;44.108;3.074;2022-09-03T14:27:24;1.33;;;1.17;;
48813;SDS011;34634;44.108;3.074;2022-09-03T14:30:02;2.90;;;1.23;;
48813;SDS011;34634;44.108;3.074;2022-09-03T14:50:38;4.30;;;1.20;;
48813;SDS011;34634;44.108;3.074;2022-09-03T14:55:43;2.60;;;1.30;;
48813;SDS011;34634;44.108;3.074;2022-09-03T15:01:02;2.05;;;1.13;;
48813;SDS011;34634;44.108;3.074;2022-09-03T15:11:18;3.08;;;1.67;;
48813;SDS011;34634;44.108;3.074;2022-09-03T15:24:12;1.40;;;1.30;;
48813;SDS011;34634;44.108;3.074;2022-09-03T15:34:14;3.45;;;1.63;;
48813;SDS011;34634;44.108;3.074;2022-09-03T15:36:45;2.08;;;1.40;;
48813;SDS011;34634;44.108;3.074;2022-09-03T15:44:13;1.83;;;1.30;;
48813;SDS011;34634;44.108;3.074;2022-09-03T15:46:53;2.78;;;1.48;;
48813;SDS011;34634;44.108;3.074;2022-09-03T15:54:45;2.03;;;1.40;;
48813;SDS011;34634;44.108;3.074;2022-09-03T15:57:20;7.40;;;2.50;;
48813;SDS011;34634;44.108;3.074;2022-09-03T15:59:52;6.43;;;2.75;;
48813;SDS011;34634;44.108;3.074;2022-09-03T16:02:24;9.52;;;2.95;;
48813;SDS011;34634;44.108;3.074;2022-09-03T16:10:09;8.35;;;2.78;;
48813;SDS011;34634;44.108;3.074;2022-09-03T16:15:11;7.68;;;3.05;;
48813;SDS011;34634;44.108;3.074;2022-09-03T16:20:31;8.13;;;3.08;;
48813;SDS011;34634;44.108;3.074;2022-09-03T16:28:23;6.82;;;2.60;;
48813;SDS011;34634;44.108;3.074;2022-09-03T16:30:56;4.20;;;2.50;;
48813;SDS011;34634;44.108;3.074;2022-09-03T16:39:11;6.45;;;2.65;;
48813;SDS011;34634;44.108;3.074;2022-09-03T16:44:32;6.47;;;2.38;;
48813;SDS011;34634;44.108;3.074;2022-09-03T16:47:22;6.93;;;2.50;;
48813;SDS011;34634;44.108;3.074;2022-09-03T16:55:03;6.35;;;2.80;;
48813;SDS011;34634;44.108;3.074;2022-09-03T17:00:08;6.70;;;2.58;;
48813;SDS011;34634;44.108;3.074;2022-09-03T17:05:37;6.30;;;2.50;;
48813;SDS011;34634;44.108;3.074;2022-09-03T17:10:51;5.82;;;2.50;;
48813;SDS011;34634;44.108;3.074;2022-09-03T17:15:48;5.65;;;2.70;;
48813;SDS011;34634;44.108;3.074;2022-09-03T17:26:10;5.45;;;2.67;;
48813;SDS011;34634;44.108;3.074;2022-09-03T17:29:21;5.90;;;2.42;;
48813;SDS011;34634;44.108;3.074;2022-09-03T17:36:52;4.55;;;2.50;;
48813;SDS011;34634;44.108;3.074;2022-09-03T17:45:05;4.97;;;2.45;;
48813;SDS011;34634;44.108;3.074;2022-09-03T17:50:24;6.47;;;3.22;;
48813;SDS011;34634;44.108;3.074;2022-09-03T17:53:00;8.35;;;3.08;;
48813;SDS011;34634;44.108;3.074;2022-09-03T17:55:30;9.02;;;2.78;;
48813;SDS011;34634;44.108;3.074;2022-09-03T17:58:02;9.13;;;2.92;;
48813;SDS011;34634;44.108;3.074;2022-09-03T18:00:39;9.00;;;2.70;;
48813;SDS011;34634;44.108;3.074;2022-09-03T18:03:10;7.90;;;2.53;;
48813;SDS011;34634;44.108;3.074;2022-09-03T18:05:48;4.72;;;2.45;;
48813;SDS011;34634;44.108;3.074;2022-09-03T18:08:25;9.27;;;2.40;;
48813;SDS011;34634;44.108;3.074;2022-09-03T18:11:11;8.20;;;2.70;;
48813;SDS011;34634;44.108;3.074;2022-09-03T18:18:49;6.05;;;2.50;;
48813;SDS011;34634;44.108;3.074;2022-09-03T18:21:22;6.20;;;2.88;;
48813;SDS011;34634;44.108;3.074;2022-09-03T18:27:03;6.50;;;2.80;;
48813;SDS011;34634;44.108;3.074;2022-09-03T18:32:48;7.45;;;2.45;;
48813;SDS011;34634;44.108;3.074;2022-09-03T18:35:33;10.35;;;4.05;;
48813;SDS011;34634;44.108;3.074;2022-09-03T18:38:22;14.43;;;3.88;;
48813;SDS011;34634;44.108;3.074;2022-09-03T18:41:13;8.18;;;2.55;;
48813;SDS011;34634;44.108;3.074;2022-09-03T18:44:14;8.73;;;3.03;;
48813;SDS011;34634;44.108;3.074;2022-09-03T18:47:07;6.72;;;2.50;;
48813;SDS011;34634;44.108;3.074;2022-09-03T18:53:01;8.82;;;3.22;;
48813;SDS011;34634;44.108;3.074;2022-09-03T18:55:53;11.20;;;2.85;;
48813;SDS011;34634;44.108;3.074;2022-09-03T19:07:04;9.85;;;3.42;;
48813;SDS011;34634;44.108;3.074;2022-09-03T19:12:42;7.05;;;3.30;;
48813;SDS011;34634;44.108;3.074;2022-09-03T19:15:31;10.18;;;3.08;;
48813;SDS011;34634;44.108;3.074;2022-09-03T19:21:26;5.75;;;2.63;;
48813;SDS011;34634;44.108;3.074;2022-09-03T19:24:11;8.38;;;3.20;;
48813;SDS011;34634;44.108;3.074;2022-09-03T19:29:51;4.43;;;2.85;;
48813;SDS011;34634;44.108;3.074;2022-09-03T19:35:48;8.60;;;3.33;;
48813;SDS011;34634;44.108;3.074;2022-09-03T19:38:47;7.53;;;2.88;;
48813;SDS011;34634;44.108;3.074;2022-09-03T19:41:37;10.38;;;2.72;;
48813;SDS011;34634;44.108;3.074;2022-09-03T19:47:28;6.30;;;3.28;;
48813;SDS011;34634;44.108;3.074;2022-09-03T19:50:19;4.70;;;2.80;;
48813;SDS011;34634;44.108;3.074;2022-09-03T19:53:22;6.90;;;3.30;;
48813;SDS011;34634;44.108;3.074;2022-09-03T19:56:13;7.10;;;2.78;;
48813;SDS011;34634;44.108;3.074;2022-09-03T19:59:02;6.85;;;2.83;;
48813;SDS011;34634;44.108;3.074;2022-09-03T20:01:49;4.25;;;2.47;;
48813;SDS011;34634;44.108;3.074;2022-09-03T20:04:35;9.70;;;3.15;;
48813;SDS011;34634;44.108;3.074;2022-09-03T20:07:22;9.18;;;2.72;;
48813;SDS011;34634;44.108;3.074;2022-09-03T20:10:08;7.55;;;2.65;;
48813;SDS011;34634;44.108;3.074;2022-09-03T20:12:49;7.63;;;2.80;;
48813;SDS011;34634;44.108;3.074;2022-09-03T20:15:17;7.75;;;3.00;;
48813;SDS011;34634;44.108;3.074;2022-09-03T20:20:25;8.50;;;3.08;;
48813;SDS011;34634;44.108;3.074;2022-09-03T20:22:57;11.25;;;3.20;;
48813;SDS011;34634;44.108;3.074;2022-09-03T20:33:21;7.68;;;3.10;;
48813;SDS011;34634;44.108;3.074;2022-09-03T20:36:04;10.98;;;3.35;;
48813;SDS011;34634;44.108;3.074;2022-09-03T20:44:07;8.43;;;2.83;;
48813;SDS011;34634;44.108;3.074;2022-09-03T20:51:53;7.57;;;3.45;;
48813;SDS011;34634;44.108;3.074;2022-09-03T20:54:21;4.53;;;2.83;;
48813;SDS011;34634;44.108;3.074;2022-09-03T20:56:57;4.32;;;2.55;;
48813;SDS011;34634;44.108;3.074;2022-09-03T21:09:42;9.52;;;3.30;;
48813;SDS011;34634;44.108;3.074;2022-09-03T21:24:53;8.45;;;3.00;;
48813;SDS011;34634;44.108;3.074;2022-09-03T21:27:22;8.27;;;3.30;;
48813;SDS011;34634;44.108;3.074;2022-09-03T21:30:00;8.98;;;3.28;;
48813;SDS011;34634;44.108;3.074;2022-09-03T21:32:32;9.18;;;3.00;;
48813;SDS011;34634;44.108;3.074;2022-09-03T21:37:32;6.90;;;2.78;;